Terminal Aerodrome Forecast
Issued by NWS

Home | Current Version | Previous Version | Text Only | Print | Product List | Glossary On
Versions: 1 2 3 4 5 6 7 8 9 10 11 12 13 14 15 16 17 18 19 20 21 22 23 24 25
000
FTUS43 KLSX 221740
TAFCPS
TAF
KCPS 221740Z 2218/2318 07005KT 3SM BR OVC005
     FM222000 09006KT P6SM OVC008
     FM230300 11006KT 2SM -SHRA BR VCTS OVC004CB
     FM230900 19006KT 3SM BR OVC003
     FM231500 27008KT 5SM BR OVC010=

USA.gov is the U.S. government's official web portal to all federal, state and local government web resources and services.